createdAt,value
2018-07-08T00:00:36.863Z,53.09
2018-07-08T00:03:06.515Z,52.97
2018-07-08T00:05:35.868Z,53.18
2018-07-08T00:08:05.494Z,53.31
2018-07-08T00:10:38.209Z,53.68
2018-07-08T00:13:09.316Z,53.61
2018-07-08T00:15:38.803Z,53.82
2018-07-08T00:18:08.237Z,53.85
2018-07-08T00:20:37.730Z,54.28
2018-07-08T00:23:07.472Z,54.57
2018-07-08T00:25:36.923Z,54.51
2018-07-08T00:28:06.375Z,54.83
2018-07-08T00:30:35.830Z,54.78
2018-07-08T00:33:05.246Z,55.35
2018-07-08T00:35:34.676Z,55.38
2018-07-08T00:38:04.148Z,55.35
2018-07-08T00:40:33.984Z,55.73
2018-07-08T00:43:03.627Z,55.74
2018-07-08T00:45:33.216Z,55.93
2018-07-08T00:48:02.667Z,56.19
2018-07-08T00:50:32.044Z,56.11
2018-07-08T00:53:01.455Z,56.37
2018-07-08T00:55:30.856Z,56.45
2018-07-08T00:58:00.332Z,56.55
2018-07-08T01:00:33.892Z,56.73
2018-07-08T01:03:04.476Z,57.07
2018-07-08T01:05:33.911Z,57.14
2018-07-08T01:08:03.896Z,57.27
2018-07-08T01:10:33.363Z,57.05
2018-07-08T01:13:03.432Z,57.08
2018-07-08T01:15:32.964Z,57.33
2018-07-08T01:18:02.520Z,57.29
2018-07-08T01:20:32.055Z,57.29
2018-07-08T01:23:01.497Z,57.46
2018-07-08T01:25:48.175Z,57.63
2018-07-08T01:28:17.650Z,57.44
2018-07-08T01:30:47.091Z,57.36
2018-07-08T01:33:16.513Z,57.59
2018-07-08T01:35:45.952Z,57.55
2018-07-08T01:38:15.407Z,57.86
2018-07-08T01:40:44.836Z,57.61
2018-07-08T01:43:14.268Z,58.06
2018-07-08T01:45:43.724Z,58.12
2018-07-08T01:48:13.130Z,58.00
2018-07-08T01:50:42.488Z,58.29
2018-07-08T01:53:12.109Z,58.32
2018-07-08T01:55:41.546Z,58.24
2018-07-08T01:58:10.946Z,58.43
2018-07-08T02:00:40.404Z,58.33
2018-07-08T02:03:10.041Z,58.57
2018-07-08T02:05:39.775Z,58.67
2018-07-08T02:08:08.942Z,58.45
2018-07-08T02:10:38.548Z,58.42
2018-07-08T02:13:07.976Z,58.54
2018-07-08T02:15:37.652Z,58.91
2018-07-08T02:18:07.143Z,58.98
2018-07-08T02:20:36.593Z,58.64
2018-07-08T02:23:06.192Z,58.59
2018-07-08T02:25:35.705Z,59.15
2018-07-08T02:28:05.320Z,59.51
2018-07-08T02:30:34.858Z,59.86
2018-07-08T02:33:04.261Z,59.90
2018-07-08T02:35:33.667Z,60.14
2018-07-08T02:38:03.066Z,60.59
2018-07-08T02:40:32.636Z,60.29
2018-07-08T02:43:02.061Z,60.33
2018-07-08T02:45:31.459Z,60.38
2018-07-08T02:48:01.034Z,60.40
2018-07-08T02:50:30.506Z,60.33
2018-07-08T02:52:59.913Z,60.31
2018-07-08T02:55:29.388Z,60.44
2018-07-08T02:57:58.833Z,60.84
2018-07-08T03:00:28.238Z,60.72
2018-07-08T03:02:57.682Z,60.93
2018-07-08T03:05:27.109Z,61.18
2018-07-08T03:07:56.536Z,61.17
2018-07-08T03:10:25.981Z,61.33
2018-07-08T03:12:55.420Z,61.07
2018-07-08T03:15:24.845Z,61.36
2018-07-08T03:17:54.304Z,61.42
2018-07-08T03:20:23.723Z,61.25
2018-07-08T03:22:53.218Z,61.16
2018-07-08T03:25:22.740Z,61.43
2018-07-08T03:27:52.219Z,61.18
2018-07-08T03:30:21.613Z,61.37
2018-07-08T03:32:51.005Z,60.97
2018-07-08T03:35:20.437Z,61.00
2018-07-08T03:37:49.857Z,60.76
2018-07-08T03:40:19.307Z,60.68
2018-07-08T03:42:48.754Z,60.61
2018-07-08T03:45:18.168Z,60.40
2018-07-08T03:47:47.611Z,60.40
2018-07-08T03:50:17.060Z,60.25
2018-07-08T03:52:46.469Z,60.25
2018-07-08T03:55:15.990Z,60.01
2018-07-08T03:57:45.461Z,59.92
2018-07-08T04:00:15.009Z,59.88
2018-07-08T04:02:44.402Z,59.72
2018-07-08T04:05:13.788Z,59.97
2018-07-08T04:07:43.195Z,60.03
2018-07-08T04:10:12.750Z,59.72
2018-07-08T04:12:42.179Z,59.52
2018-07-08T04:15:11.702Z,59.61
2018-07-08T04:17:41.122Z,59.88
2018-07-08T04:20:10.491Z,59.75
2018-07-08T04:22:39.915Z,59.49
2018-07-08T04:25:09.312Z,59.60
2018-07-08T04:27:38.712Z,59.16
2018-07-08T04:30:08.164Z,58.92
2018-07-08T04:32:37.520Z,58.25
2018-07-08T04:35:07.305Z,58.27
2018-07-08T04:37:36.696Z,58.64
2018-07-08T04:40:06.250Z,59.26
2018-07-08T04:42:35.657Z,58.68
2018-07-08T04:45:05.043Z,58.43
2018-07-08T04:47:34.475Z,58.34
2018-07-08T04:50:03.936Z,58.38
2018-07-08T04:52:33.380Z,57.51
2018-07-08T04:55:02.797Z,57.27
2018-07-08T04:57:32.234Z,57.85
2018-07-08T05:00:01.888Z,57.65
2018-07-08T05:02:31.405Z,57.89
2018-07-08T05:05:00.889Z,56.94
2018-07-08T05:07:30.327Z,57.65
2018-07-08T05:09:59.801Z,57.83
2018-07-08T05:12:29.240Z,57.00
2018-07-08T05:14:58.754Z,57.64
2018-07-08T05:17:28.146Z,57.80
2018-07-08T05:19:57.626Z,56.94
2018-07-08T05:22:27.073Z,56.85
2018-07-08T05:24:56.505Z,57.61
2018-07-08T05:27:25.962Z,56.94
2018-07-08T05:29:55.552Z,56.96
2018-07-08T05:32:25.100Z,57.61
2018-07-08T05:34:54.525Z,56.51
2018-07-08T05:37:23.984Z,56.90
2018-07-08T05:39:53.411Z,56.51
2018-07-08T05:42:22.896Z,55.91
2018-07-08T05:44:52.331Z,55.27
2018-07-08T05:47:21.780Z,54.81
2018-07-08T05:49:51.176Z,54.02
2018-07-08T05:52:20.606Z,53.90
2018-07-08T05:54:50.128Z,52.81
2018-07-08T05:57:19.543Z,53.53
2018-07-08T05:59:48.946Z,53.41
2018-07-08T06:02:18.376Z,54.19
2018-07-08T06:04:47.777Z,54.21
2018-07-08T06:07:17.142Z,55.53
2018-07-08T06:09:46.579Z,55.93
2018-07-08T06:12:15.993Z,55.55
2018-07-08T06:14:45.450Z,54.73
2018-07-08T06:17:14.846Z,54.54
2018-07-08T06:19:44.322Z,54.55
2018-07-08T06:22:13.735Z,54.41
2018-07-08T06:24:43.210Z,53.94
2018-07-08T06:27:12.637Z,53.15
2018-07-08T06:29:42.101Z,53.19
2018-07-08T06:32:11.596Z,52.43
2018-07-08T06:34:41.005Z,52.30
2018-07-08T06:37:10.433Z,51.80
2018-07-08T06:39:39.831Z,52.10
2018-07-08T06:42:09.309Z,50.84
2018-07-08T06:44:38.816Z,51.25
2018-07-08T06:47:08.243Z,50.72
2018-07-08T06:49:37.660Z,49.69
2018-07-08T06:52:07.154Z,46.41
2018-07-08T06:54:36.520Z,44.92
2018-07-08T06:57:06.500Z,47.96
2018-07-08T06:59:35.931Z,49.83
2018-07-08T07:02:05.353Z,47.87
2018-07-08T07:04:34.799Z,47.83
2018-07-08T07:07:04.215Z,47.91
2018-07-08T07:09:33.625Z,48.00
2018-07-08T07:12:03.018Z,51.20
2018-07-08T07:14:32.396Z,50.70
2018-07-08T07:17:01.844Z,50.52
2018-07-08T07:19:31.309Z,50.31
2018-07-08T07:22:00.690Z,50.20
2018-07-08T07:24:30.099Z,51.33
2018-07-08T07:26:59.807Z,51.04
2018-07-08T07:29:29.256Z,50.53
2018-07-08T07:31:58.660Z,51.13
2018-07-08T07:34:28.093Z,50.36
2018-07-08T07:36:57.569Z,49.70
2018-07-08T07:39:27.051Z,48.24
2018-07-08T07:41:56.572Z,47.77
2018-07-08T07:44:25.982Z,47.92
2018-07-08T07:46:55.471Z,48.26
2018-07-08T07:49:24.942Z,48.80
2018-07-08T07:51:54.324Z,48.06
2018-07-08T07:54:23.792Z,46.00
2018-07-08T07:56:53.622Z,46.20
2018-07-08T07:59:23.069Z,47.96
2018-07-08T08:01:52.650Z,47.25
2018-07-08T08:04:22.149Z,46.07
2018-07-08T08:06:51.557Z,45.68
2018-07-08T08:09:21.037Z,45.25
2018-07-08T08:11:50.451Z,46.15
2018-07-08T08:14:19.865Z,44.79
2018-07-08T08:16:49.489Z,44.12
2018-07-08T08:19:19.069Z,43.55
2018-07-08T08:21:48.547Z,43.42
2018-07-08T08:24:18.012Z,42.59
2018-07-08T08:26:47.452Z,42.99
2018-07-08T08:29:16.862Z,41.62
2018-07-08T08:31:46.258Z,42.09
2018-07-08T08:34:58.248Z,41.18
2018-07-08T08:37:30.107Z,40.34
2018-07-08T08:39:59.465Z,40.72
2018-07-08T08:42:28.909Z,43.09
2018-07-08T08:44:59.090Z,42.07
2018-07-08T08:47:29.331Z,42.65
2018-07-08T08:49:58.832Z,41.42
2018-07-08T08:52:28.396Z,42.14
2018-07-08T08:54:58.135Z,41.40
2018-07-08T08:57:27.579Z,41.84
2018-07-08T08:59:57.225Z,39.76
2018-07-08T09:02:26.700Z,37.71
2018-07-08T09:04:56.061Z,35.59
2018-07-08T09:07:25.544Z,34.91
2018-07-08T09:09:55.077Z,35.04
2018-07-08T09:12:24.461Z,37.10
2018-07-08T09:14:53.901Z,33.99
2018-07-08T09:17:23.312Z,31.78
2018-07-08T09:19:52.664Z,29.83
2018-07-08T09:22:22.147Z,29.53
2018-07-08T09:24:51.542Z,28.56
2018-07-08T09:27:20.947Z,28.93
2018-07-08T09:29:50.389Z,27.45
2018-07-08T09:32:19.851Z,29.75
2018-07-08T09:34:49.343Z,30.56
2018-07-08T09:37:18.742Z,30.01
2018-07-08T09:39:48.193Z,29.09
2018-07-08T09:42:17.646Z,27.79
2018-07-08T09:44:47.135Z,28.51
2018-07-08T09:47:16.538Z,27.88
2018-07-08T09:49:46.181Z,31.91
2018-07-08T09:52:15.570Z,29.30
2018-07-08T09:54:45.021Z,29.33
2018-07-08T09:57:14.487Z,28.75
2018-07-08T09:59:43.907Z,29.94
2018-07-08T10:02:13.353Z,28.86
2018-07-08T10:04:42.798Z,29.81
2018-07-08T10:07:12.218Z,28.16
2018-07-08T10:09:41.654Z,26.75
2018-07-08T10:12:11.277Z,26.88
2018-07-08T10:14:40.769Z,27.61
2018-07-08T10:17:10.212Z,28.78
2018-07-08T10:19:39.699Z,29.77
2018-07-08T10:22:09.144Z,30.88
2018-07-08T10:24:38.686Z,29.83
2018-07-08T10:34:30.210Z,35.35
2018-07-08T10:36:59.619Z,36.53
2018-07-08T10:39:28.819Z,36.68
2018-07-08T10:41:58.283Z,35.01
2018-07-08T10:44:27.847Z,34.48
2018-07-08T10:46:57.273Z,35.24
2018-07-08T10:49:26.689Z,35.91
2018-07-08T10:51:56.223Z,36.35
2018-07-08T10:54:25.744Z,36.85
2018-07-08T10:56:55.114Z,37.18
2018-07-08T10:59:24.561Z,37.25
2018-07-08T11:01:53.990Z,37.21
2018-07-08T11:04:23.524Z,36.66
2018-07-08T11:06:53.009Z,36.96
2018-07-08T11:09:22.447Z,37.44
2018-07-08T11:11:51.823Z,36.51
2018-07-08T11:14:21.241Z,36.95
2018-07-08T11:16:50.694Z,36.70
2018-07-08T11:19:20.269Z,37.14
2018-07-08T11:21:49.761Z,37.24
2018-07-08T11:24:19.140Z,36.79
2018-07-08T11:26:48.526Z,36.35
2018-07-08T11:29:17.993Z,36.84
2018-07-08T11:31:47.130Z,36.39
2018-07-08T11:34:16.531Z,36.36
2018-07-08T11:36:45.975Z,37.03
2018-07-08T11:39:15.545Z,37.29
2018-07-08T11:41:44.937Z,37.82
2018-07-08T11:44:14.406Z,38.30
2018-07-08T11:46:43.827Z,36.91
2018-07-08T11:49:13.027Z,36.40
2018-07-08T11:51:42.355Z,37.08
2018-07-08T11:54:11.773Z,36.88
2018-07-08T11:56:41.270Z,36.70
2018-07-08T11:59:10.794Z,36.26
2018-07-08T12:01:40.239Z,35.55
2018-07-08T12:04:09.740Z,34.74
2018-07-08T12:06:39.193Z,36.07
2018-07-08T12:09:08.749Z,35.76
2018-07-08T12:11:38.135Z,35.06
2018-07-08T12:14:07.679Z,35.31
2018-07-08T12:16:37.109Z,35.57
2018-07-08T12:19:06.678Z,35.02
2018-07-08T12:21:36.199Z,34.91
2018-07-08T12:24:05.790Z,34.82
2018-07-08T12:26:35.235Z,33.83
2018-07-08T12:29:04.702Z,32.87
2018-07-08T12:31:34.139Z,34.56
2018-07-08T12:34:03.572Z,34.04
2018-07-08T12:36:33.083Z,34.78
2018-07-08T12:39:02.557Z,34.77
2018-07-08T12:41:32.067Z,33.85
2018-07-08T12:44:01.570Z,35.69
2018-07-08T12:46:31.051Z,36.88
2018-07-08T12:49:00.584Z,35.92
2018-07-08T12:51:29.950Z,34.89
2018-07-08T12:53:59.429Z,33.70
2018-07-08T12:56:28.795Z,35.24
2018-07-08T12:58:58.281Z,34.71
2018-07-08T13:01:27.720Z,33.01
2018-07-08T13:03:57.169Z,32.89
2018-07-08T13:06:26.759Z,32.48
2018-07-08T13:08:56.158Z,32.33
2018-07-08T13:11:25.629Z,32.55
2018-07-08T13:13:55.117Z,31.73
2018-07-08T13:16:24.438Z,32.26
2018-07-08T13:18:53.857Z,32.80
2018-07-08T13:21:23.335Z,32.12
2018-07-08T13:23:52.744Z,31.11
2018-07-08T13:26:22.236Z,29.52
2018-07-08T13:28:51.585Z,31.29
2018-07-08T13:31:21.071Z,30.74
2018-07-08T13:33:50.526Z,31.97
2018-07-08T13:36:19.914Z,32.28
2018-07-08T13:38:49.412Z,31.84
2018-07-08T13:41:18.863Z,32.35
2018-07-08T13:43:48.541Z,32.93
2018-07-08T13:46:17.980Z,32.96
2018-07-08T13:48:47.399Z,32.12
2018-07-08T13:51:16.814Z,33.67
2018-07-08T13:53:46.259Z,33.81
2018-07-08T13:56:15.645Z,34.19
2018-07-08T13:58:45.071Z,34.52
2018-07-08T14:01:14.490Z,31.88
2018-07-08T14:03:43.928Z,32.31
2018-07-08T14:06:13.503Z,33.41
2018-07-08T14:08:42.882Z,34.63
2018-07-08T14:11:12.362Z,34.93
2018-07-08T14:13:41.816Z,34.87
2018-07-08T14:16:11.219Z,34.29
2018-07-08T14:18:40.605Z,35.46
2018-07-08T14:21:10.047Z,34.91
2018-07-08T14:23:39.496Z,35.62
2018-07-08T14:26:08.945Z,35.76
2018-07-08T14:28:38.306Z,35.08
2018-07-08T14:31:07.763Z,35.00
2018-07-08T14:33:37.145Z,35.63
2018-07-08T14:36:06.643Z,35.57
2018-07-08T14:38:36.081Z,35.80
2018-07-08T14:41:05.523Z,35.79
2018-07-08T14:43:34.979Z,34.49
2018-07-08T14:46:04.529Z,35.59
2018-07-08T14:48:33.901Z,36.30
2018-07-08T14:51:03.358Z,36.15
2018-07-08T14:53:32.759Z,35.06
2018-07-08T14:56:02.214Z,35.46
2018-07-08T14:58:31.688Z,34.94
2018-07-08T15:01:01.245Z,33.83
2018-07-08T15:03:30.676Z,33.55
2018-07-08T15:06:00.095Z,33.42
2018-07-08T15:08:29.629Z,32.79
2018-07-08T15:10:59.190Z,33.92
2018-07-08T15:13:28.795Z,33.64
2018-07-08T15:15:58.238Z,34.41
2018-07-08T15:18:27.787Z,35.02
2018-07-08T15:20:57.308Z,35.18
2018-07-08T15:23:26.732Z,34.80
2018-07-08T15:25:56.196Z,33.94
2018-07-08T15:28:25.813Z,33.56
2018-07-08T15:30:55.276Z,33.88
2018-07-08T15:33:24.642Z,33.11
2018-07-08T15:35:56.550Z,33.26
2018-07-08T15:38:26.031Z,33.39
2018-07-08T15:40:55.452Z,33.80
2018-07-08T15:43:24.971Z,33.77
2018-07-08T15:45:54.408Z,32.94
2018-07-08T15:48:24.124Z,33.53
2018-07-08T15:50:53.624Z,33.11
2018-07-08T15:53:23.180Z,33.47
2018-07-08T15:55:52.580Z,32.87
2018-07-08T15:58:21.999Z,33.31
2018-07-08T16:00:51.401Z,32.94
2018-07-08T16:03:20.822Z,33.28
2018-07-08T16:05:50.249Z,33.70
2018-07-08T16:08:19.737Z,33.55
2018-07-08T16:10:49.131Z,33.40
2018-07-08T16:13:18.553Z,33.22
2018-07-08T16:15:48.079Z,33.12
2018-07-08T16:18:17.599Z,32.95
2018-07-08T16:20:46.989Z,33.72
2018-07-08T16:23:16.403Z,33.70
2018-07-08T16:25:45.985Z,32.70
2018-07-08T16:28:15.388Z,33.11
2018-07-08T16:30:44.866Z,33.42
2018-07-08T16:33:14.338Z,33.07
2018-07-08T16:35:52.189Z,33.04
2018-07-08T16:38:21.636Z,32.98
2018-07-08T16:40:52.526Z,33.93
2018-07-08T16:43:21.951Z,34.11
2018-07-08T16:45:51.412Z,34.50
2018-07-08T16:48:21.001Z,34.36
2018-07-08T16:50:50.451Z,33.94
2018-07-08T16:53:19.966Z,34.58
2018-07-08T16:55:49.435Z,33.90
2018-07-08T16:58:18.944Z,34.29
2018-07-08T17:00:48.382Z,34.62
2018-07-08T17:03:17.821Z,34.19
2018-07-08T17:05:47.244Z,34.68
2018-07-08T17:08:16.743Z,34.78
2018-07-08T17:10:46.121Z,34.71
2018-07-08T17:13:15.621Z,34.78
2018-07-08T17:15:45.017Z,35.08
2018-07-08T17:18:14.468Z,35.13
2018-07-08T17:20:43.856Z,34.96
2018-07-08T17:23:13.387Z,35.72
2018-07-08T17:25:42.787Z,34.97
2018-07-08T17:28:12.228Z,35.25
2018-07-08T17:30:42.072Z,35.95
2018-07-08T17:33:11.664Z,35.33
2018-07-08T17:35:41.156Z,35.58
2018-07-08T17:38:10.632Z,34.90
2018-07-08T17:40:40.144Z,35.71
2018-07-08T17:43:09.599Z,35.28
2018-07-08T17:45:39.051Z,35.46
2018-07-08T17:48:08.569Z,35.61
2018-07-08T17:50:37.968Z,35.13
2018-07-08T17:53:07.391Z,35.98
2018-07-08T17:55:36.837Z,36.30
2018-07-08T17:58:06.540Z,36.45
2018-07-08T18:00:36.181Z,36.19
2018-07-08T18:03:05.585Z,36.41
2018-07-08T18:05:35.042Z,36.35
2018-07-08T18:08:04.492Z,36.55
2018-07-08T18:10:34.237Z,36.38
2018-07-08T18:13:03.785Z,37.32
2018-07-08T18:15:33.202Z,37.19
2018-07-08T18:18:02.649Z,37.32
2018-07-08T18:20:32.873Z,37.14
2018-07-08T18:23:02.354Z,37.08
2018-07-08T18:25:31.735Z,37.38
2018-07-08T18:28:01.106Z,37.35
2018-07-08T18:30:31.825Z,37.75
2018-07-08T18:33:01.297Z,38.11
2018-07-08T18:35:30.827Z,38.22
2018-07-08T18:38:00.271Z,38.39
2018-07-08T18:40:29.693Z,38.46
2018-07-08T18:42:59.148Z,38.61
2018-07-08T18:45:28.523Z,38.67
2018-07-08T18:47:57.919Z,38.94
2018-07-08T18:50:27.383Z,39.52
2018-07-08T18:52:56.801Z,39.05
2018-07-08T18:55:26.216Z,39.54
2018-07-08T18:57:55.643Z,39.43
2018-07-08T19:00:25.123Z,40.19
2018-07-08T19:02:54.543Z,39.52
2018-07-08T19:05:23.967Z,40.55
2018-07-08T19:07:53.388Z,40.27
2018-07-08T19:10:22.869Z,40.15
2018-07-08T19:12:52.260Z,40.65
2018-07-08T19:15:21.741Z,40.94
2018-07-08T19:17:51.123Z,41.14
2018-07-08T19:20:20.571Z,41.13
2018-07-08T19:22:50.052Z,41.27
2018-07-08T19:25:19.501Z,41.81
2018-07-08T19:27:48.880Z,41.87
2018-07-08T19:30:18.324Z,41.67
2018-07-08T19:32:47.791Z,42.25
2018-07-08T19:35:17.437Z,42.05
2018-07-08T19:37:46.951Z,42.57
2018-07-08T19:40:16.660Z,42.80
2018-07-08T19:42:46.005Z,42.71
2018-07-08T19:45:15.479Z,42.77
2018-07-08T19:47:44.933Z,42.79
2018-07-08T19:50:14.324Z,43.29
2018-07-08T19:52:43.782Z,43.32
2018-07-08T19:55:13.256Z,43.55
2018-07-08T19:57:42.668Z,43.57
2018-07-08T20:00:12.127Z,43.87
2018-07-08T20:02:41.493Z,44.11
2018-07-08T20:05:10.917Z,43.68
2018-07-08T20:07:40.477Z,44.13
2018-07-08T20:10:09.828Z,44.25
2018-07-08T20:12:39.192Z,44.44
2018-07-08T20:15:08.610Z,44.75
2018-07-08T20:17:38.152Z,44.64
2018-07-08T20:20:09.561Z,44.78
2018-07-08T20:22:39.034Z,44.98
2018-07-08T20:25:09.078Z,44.77
2018-07-08T20:27:38.936Z,45.19
2018-07-08T20:30:08.324Z,44.75
2018-07-08T20:32:38.109Z,45.01
2018-07-08T20:35:07.751Z,45.27
2018-07-08T20:37:37.008Z,45.32
2018-07-08T20:40:06.407Z,45.65
2018-07-08T20:42:36.208Z,45.70
2018-07-08T20:45:05.660Z,45.92
2018-07-08T20:47:35.187Z,45.98
2018-07-08T20:50:04.852Z,45.83
2018-07-08T20:52:34.518Z,45.98
2018-07-08T20:55:03.871Z,46.33
2018-07-08T20:57:33.374Z,45.89
2018-07-08T21:00:02.769Z,46.20
2018-07-08T21:02:32.264Z,46.42
2018-07-08T21:05:01.797Z,46.62
2018-07-08T21:07:31.186Z,46.86
2018-07-08T21:10:00.645Z,46.80
2018-07-08T21:12:30.839Z,47.10
2018-07-08T21:15:00.179Z,47.22
2018-07-08T21:17:29.540Z,46.91
2018-07-08T21:19:59.056Z,47.20
2018-07-08T21:22:28.847Z,47.30
2018-07-08T21:24:58.196Z,47.46
2018-07-08T21:27:27.631Z,47.57
2018-07-08T21:29:57.106Z,47.85
2018-07-08T21:32:26.587Z,48.19
2018-07-08T21:34:56.022Z,48.04
2018-07-08T21:37:26.081Z,48.30
2018-07-08T21:39:55.617Z,48.58
2018-07-08T21:42:25.116Z,48.65
2018-07-08T21:44:55.308Z,49.06
2018-07-08T21:47:24.935Z,49.49
2018-07-08T21:49:54.311Z,49.20
2018-07-08T21:52:23.707Z,49.78
2018-07-08T21:54:53.082Z,49.56
2018-07-08T21:57:22.599Z,49.62
2018-07-08T21:59:52.063Z,49.42
2018-07-08T22:02:22.558Z,49.50
2018-07-08T22:04:52.075Z,49.60
2018-07-08T22:07:23.049Z,49.75
2018-07-08T22:09:53.732Z,49.41
2018-07-08T22:12:23.139Z,49.83
2018-07-08T22:14:52.512Z,49.74
2018-07-08T22:17:21.934Z,49.76
2018-07-08T22:19:51.286Z,49.71
2018-07-08T22:22:20.680Z,49.80
2018-07-08T22:24:50.145Z,50.03
2018-07-08T22:27:19.730Z,50.31
2018-07-08T22:29:49.167Z,50.51
2018-07-08T22:32:18.537Z,50.40
2018-07-08T22:34:47.953Z,50.51
2018-07-08T22:37:17.353Z,50.35
2018-07-08T22:39:46.800Z,50.57
2018-07-08T22:42:16.476Z,51.20
2018-07-08T22:44:45.917Z,51.00
2018-07-08T22:47:15.348Z,50.83
2018-07-08T22:49:45.185Z,51.02
2018-07-08T22:52:14.624Z,50.87
2018-07-08T22:54:44.037Z,51.12
2018-07-08T22:57:13.430Z,51.22
2018-07-08T23:00:00.106Z,50.96
2018-07-08T23:02:41.887Z,51.26
2018-07-08T23:05:11.263Z,50.98
2018-07-08T23:07:41.337Z,51.49
2018-07-08T23:10:11.839Z,51.39
2018-07-08T23:12:41.275Z,51.37
2018-07-08T23:15:10.678Z,51.32
2018-07-08T23:17:44.259Z,51.69
2018-07-08T23:20:14.505Z,51.74
2018-07-08T23:22:58.041Z,51.63
2018-07-08T23:25:27.739Z,51.83
2018-07-08T23:27:57.694Z,51.89
2018-07-08T23:30:27.081Z,52.01
2018-07-08T23:32:56.463Z,51.79
2018-07-08T23:35:25.879Z,52.08
2018-07-08T23:37:55.380Z,51.80
2018-07-08T23:40:24.805Z,51.82
2018-07-08T23:42:54.349Z,51.37
2018-07-08T23:45:23.738Z,51.43
2018-07-08T23:47:53.162Z,51.50
2018-07-08T23:50:22.592Z,51.49
2018-07-08T23:52:52.023Z,51.42
2018-07-08T23:55:21.400Z,51.36
2018-07-08T23:57:50.822Z,51.51
